Time;durP1;ratioP1;P1;durP2;ratioP2;P2;SDS_P1;SDS_P2;PMS_P1;PMS_P2;Temp;Humidity;BMP_temperature;BMP_pressure;BME280_temperature;BME280_humidity;BME280_pressure;Samples;Min_cycle;Max_cycle;Signal;HPM_P1;HPM_P2
2022/01/13 00:00:32;;;;;;;46.10;24.63;;;1.30;99.90;;;;;;5053901;28;20206;-65
2022/01/13 00:02:57;;;;;;;48.60;24.37;;;1.30;99.90;;;;;;5053455;28;20186;-64
2022/01/13 00:05:29;;;;;;;52.67;24.07;;;1.40;99.90;;;;;;5053401;28;20202;-64
2022/01/13 00:07:57;;;;;;;49.10;24.93;;;1.40;99.90;;;;;;5053565;28;20167;-65
2022/01/13 00:10:26;;;;;;;48.70;25.47;;;1.40;99.90;;;;;;5053749;28;20563;-64
2022/01/13 00:13:06;;;;;;;48.77;25.90;;;1.40;99.90;;;;;;5053516;28;20231;-64
2022/01/13 00:18:17;;;;;;;53.17;24.97;;;1.40;99.90;;;;;;5053532;28;20523;-64
2022/01/13 00:25:58;;;;;;;46.50;24.30;;;1.30;99.90;;;;;;5054808;28;20197;-64
2022/01/13 00:28:25;;;;;;;49.00;25.90;;;1.30;99.90;;;;;;5052937;28;20179;-64
2022/01/13 00:30:54;;;;;;;47.67;25.20;;;1.30;99.90;;;;;;5053391;28;20189;-64
2022/01/13 00:33:24;;;;;;;47.07;25.17;;;1.20;99.90;;;;;;5053542;28;20174;-64
2022/01/13 00:35:51;;;;;;;48.10;25.03;;;1.20;99.90;;;;;;5051914;28;20259;-65
2022/01/13 00:38:17;;;;;;;48.90;26.60;;;1.20;99.90;;;;;;5055157;28;20181;-64
2022/01/13 00:40:43;;;;;;;55.80;28.70;;;1.20;99.90;;;;;;5057334;28;20175;-65
2022/01/13 00:43:08;;;;;;;51.60;26.67;;;1.20;99.90;;;;;;5057231;28;20565;-64
2022/01/13 00:45:34;;;;;;;53.53;28.47;;;1.20;99.90;;;;;;5058163;28;20679;-63
2022/01/13 00:48:00;;;;;;;51.03;27.83;;;1.20;99.90;;;;;;5058231;28;20189;-64
2022/01/13 00:50:26;;;;;;;59.00;29.40;;;1.10;99.90;;;;;;5059362;28;20182;-64
2022/01/13 00:52:51;;;;;;;54.67;28.10;;;1.10;99.90;;;;;;5058697;28;20179;-64
2022/01/13 00:55:21;;;;;;;48.60;25.87;;;1.10;99.90;;;;;;5057060;28;20241;-64
2022/01/13 00:57:47;;;;;;;48.17;25.93;;;1.10;99.90;;;;;;5057131;28;20266;-64
2022/01/13 01:00:14;;;;;;;51.40;26.57;;;1.20;99.90;;;;;;5056990;28;20170;-64
2022/01/13 01:02:39;;;;;;;46.13;24.77;;;1.10;99.90;;;;;;5056926;28;20182;-64
2022/01/13 01:05:05;;;;;;;44.40;25.43;;;1.10;99.90;;;;;;5055308;28;20198;-64
2022/01/13 01:07:32;;;;;;;47.53;24.10;;;1.20;99.90;;;;;;5056727;28;20193;-64
2022/01/13 01:10:01;;;;;;;45.00;24.97;;;1.10;99.90;;;;;;5055295;28;20658;-64
2022/01/13 01:12:29;;;;;;;49.63;25.17;;;1.10;99.90;;;;;;5055307;28;20642;-64
2022/01/13 01:14:57;;;;;;;45.47;24.40;;;1.10;99.90;;;;;;5056455;28;20198;-64
2022/01/13 01:17:23;;;;;;;41.90;23.83;;;1.10;99.90;;;;;;5056328;28;20254;-65
2022/01/13 01:19:51;;;;;;;42.77;23.47;;;1.10;99.90;;;;;;5056444;28;20207;-65
2022/01/13 01:27:21;;;;;;;46.23;25.43;;;1.10;99.90;;;;;;5056200;28;20229;-65
2022/01/13 01:32:44;;;;;;;44.17;23.10;;;1.10;99.90;;;;;;5065801;28;20221;-64
2022/01/13 01:35:15;;;;;;;48.27;24.37;;;1.10;99.90;;;;;;5054691;28;20198;-64
2022/01/13 01:37:43;;;;;;;53.03;25.20;;;1.10;99.90;;;;;;5054747;28;20547;-65
2022/01/13 01:40:11;;;;;;;46.20;25.23;;;1.10;99.90;;;;;;5055903;28;20183;-64
2022/01/13 01:42:37;;;;;;;44.93;25.10;;;1.10;99.90;;;;;;5056035;28;20257;-66
2022/01/13 01:45:05;;;;;;;52.87;25.47;;;1.00;99.90;;;;;;5054555;28;20201;-65
2022/01/13 01:47:33;;;;;;;46.67;25.20;;;1.00;99.90;;;;;;5055918;28;20197;-65
2022/01/13 01:50:10;;;;;;;49.37;26.13;;;1.00;99.90;;;;;;5055760;28;20221;-65
2022/01/13 01:52:36;;;;;;;40.17;21.73;;;1.00;99.90;;;;;;5054553;28;20177;-65
2022/01/13 01:55:03;;;;;;;44.47;24.63;;;1.00;99.90;;;;;;5055554;28;20199;-65
2022/01/13 01:57:29;;;;;;;42.93;24.40;;;1.10;99.90;;;;;;5054406;28;20182;-65
2022/01/13 01:59:55;;;;;;;44.50;24.73;;;1.00;99.90;;;;;;5054313;28;20713;-65
2022/01/13 02:02:24;;;;;;;49.63;25.03;;;1.00;99.90;;;;;;5054266;28;20270;-64
2022/01/13 02:04:50;;;;;;;43.20;24.40;;;1.10;99.90;;;;;;5055529;28;20190;-65
2022/01/13 02:07:16;;;;;;;43.83;23.13;;;1.10;99.90;;;;;;5055771;28;20232;-65
2022/01/13 02:09:44;;;;;;;49.67;24.53;;;1.10;99.90;;;;;;5054082;28;20193;-65
2022/01/13 02:12:15;;;;;;;48.43;25.07;;;1.10;99.90;;;;;;5055289;28;20175;-65
2022/01/13 02:14:55;;;;;;;40.33;22.83;;;1.10;99.90;;;;;;5055629;28;20540;-65
2022/01/13 02:17:24;;;;;;;42.10;23.40;;;1.10;99.90;;;;;;5054044;28;20174;-65
2022/01/13 02:19:53;;;;;;;50.07;24.43;;;1.10;99.90;;;;;;5055194;28;20170;-65
2022/01/13 02:22:19;;;;;;;47.03;25.00;;;1.10;99.90;;;;;;5055556;28;20181;-65
2022/01/13 02:24:45;;;;;;;51.17;24.37;;;1.00;99.90;;;;;;5053815;28;20292;-66
2022/01/13 02:27:10;;;;;;;46.33;26.20;;;1.00;99.90;;;;;;5054894;28;20198;-65
2022/01/13 02:29:36;;;;;;;48.93;24.47;;;1.00;99.90;;;;;;5055653;28;20175;-65
2022/01/13 02:32:04;;;;;;;48.83;25.47;;;0.90;99.90;;;;;;5055108;28;20662;-65
2022/01/13 02:34:30;;;;;;;50.33;24.70;;;0.90;99.90;;;;;;5054795;28;20190;-65
2022/01/13 02:36:57;;;;;;;48.77;25.07;;;1.00;99.90;;;;;;5055120;28;20268;-65
2022/01/13 02:39:24;;;;;;;45.97;24.37;;;0.90;99.90;;;;;;5053582;28;20171;-65
2022/01/13 02:41:50;;;;;;;51.17;26.40;;;0.90;99.90;;;;;;5054888;28;20162;-65
2022/01/13 02:44:20;;;;;;;40.90;23.67;;;0.90;99.90;;;;;;5053479;28;20202;-65
2022/01/13 02:49:18;;;;;;;45.80;25.70;;;0.90;99.90;;;;;;5054808;28;20175;-65
2022/01/13 02:51:45;;;;;;;51.87;25.63;;;0.90;99.90;;;;;;5054617;28;20200;-65
2022/01/13 02:54:12;;;;;;;51.03;23.77;;;0.90;99.90;;;;;;5053434;28;20571;-66
2022/01/13 02:56:38;;;;;;;40.70;22.83;;;0.80;99.90;;;;;;5053254;28;20640;-65
2022/01/13 02:59:05;;;;;;;48.17;23.90;;;0.80;99.90;;;;;;5054608;28;20584;-65
2022/01/13 03:01:35;;;;;;;41.40;24.43;;;0.80;99.90;;;;;;5053813;28;20171;-64
2022/01/13 03:04:05;;;;;;;50.90;25.47;;;0.80;99.90;;;;;;5053012;28;20194;-65
2022/01/13 03:06:34;;;;;;;50.07;24.70;;;0.80;99.90;;;;;;5054480;28;20166;-65
2022/01/13 03:09:01;;;;;;;51.37;24.40;;;0.70;99.90;;;;;;5053020;28;20266;-65
2022/01/13 03:11:33;;;;;;;48.87;25.20;;;0.70;99.90;;;;;;5054232;28;20647;-65
2022/01/13 03:14:00;;;;;;;48.37;24.40;;;0.70;99.90;;;;;;5054205;28;20201;-65
2022/01/13 03:16:26;;;;;;;52.17;26.03;;;0.70;99.90;;;;;;5054145;28;20205;-65
2022/01/13 03:18:52;;;;;;;48.13;24.13;;;0.70;99.90;;;;;;5054064;28;20166;-65
2022/01/13 03:21:18;;;;;;;57.03;26.10;;;0.70;99.90;;;;;;5054014;28;20296;-64
2022/01/13 03:23:44;;;;;;;50.70;26.03;;;0.70;99.90;;;;;;5054448;28;20706;-65
2022/01/13 03:26:10;;;;;;;49.20;24.90;;;0.70;99.90;;;;;;5053993;28;20189;-65
2022/01/13 03:28:50;;;;;;;54.93;25.47;;;0.80;99.90;;;;;;5053940;28;20556;-65
2022/01/13 03:31:16;;;;;;;46.77;24.87;;;0.80;99.90;;;;;;5053970;28;20161;-65
2022/01/13 03:33:42;;;;;;;48.80;24.20;;;0.80;99.90;;;;;;5053738;28;20177;-65
2022/01/13 03:36:08;;;;;;;53.77;26.07;;;0.80;99.90;;;;;;5053723;28;20575;-65
2022/01/13 03:38:35;;;;;;;52.77;26.17;;;0.90;99.90;;;;;;5054073;28;20634;-65
2022/01/13 03:41:01;;;;;;;46.37;25.17;;;0.90;99.90;;;;;;5052434;28;20174;-65
2022/01/13 03:43:27;;;;;;;50.40;26.00;;;0.90;99.90;;;;;;5053555;28;20170;-65
2022/01/13 03:45:53;;;;;;;51.33;25.13;;;0.90;99.90;;;;;;5053630;28;20177;-65
2022/01/13 03:48:19;;;;;;;57.27;26.53;;;0.80;99.90;;;;;;5053982;28;20174;-65
2022/01/13 03:50:45;;;;;;;59.67;29.33;;;0.80;99.90;;;;;;5053693;28;20519;-65
2022/01/13 03:53:28;;;;;;;57.40;29.03;;;0.80;99.90;;;;;;5053591;28;20605;-64
2022/01/13 03:56:16;;;;;;;62.40;28.33;;;0.80;99.90;;;;;;5053468;28;20241;-65
2022/01/13 03:59:15;;;;;;;53.20;26.80;;;0.90;99.90;;;;;;5052261;28;20186;-65
2022/01/13 04:02:06;;;;;;;55.17;27.17;;;0.90;99.90;;;;;;5053533;28;20170;-65
2022/01/13 04:04:44;;;;;;;60.83;28.80;;;0.90;99.90;;;;;;5053311;28;20182;-65
2022/01/13 04:07:14;;;;;;;61.57;27.97;;;0.90;99.90;;;;;;5053404;28;20170;-65
2022/01/13 04:09:40;;;;;;;59.77;29.87;;;1.00;99.90;;;;;;5053481;28;20163;-65
2022/01/13 04:12:08;;;;;;;60.60;28.43;;;1.00;99.90;;;;;;5052661;28;20185;-65
2022/01/13 04:14:45;;;;;;;60.27;27.70;;;1.00;99.90;;;;;;5053253;28;20647;-65
2022/01/13 04:17:13;;;;;;;57.27;27.73;;;1.00;99.90;;;;;;5053293;28;20225;-64
2022/01/13 04:19:40;;;;;;;54.23;29.37;;;1.00;99.90;;;;;;5053462;28;20654;-64
2022/01/13 04:22:07;;;;;;;65.50;29.80;;;1.00;99.90;;;;;;5051990;28;20174;-65
2022/01/13 04:24:35;;;;;;;59.47;28.67;;;1.00;99.90;;;;;;5053087;28;20278;-65
2022/01/13 04:27:01;;;;;;;62.27;30.67;;;1.10;99.90;;;;;;5053220;28;20260;-65
2022/01/13 04:29:35;;;;;;;56.03;26.67;;;1.10;99.90;;;;;;5053716;28;20639;-65
2022/01/13 04:32:01;;;;;;;70.60;28.87;;;1.00;99.90;;;;;;5053405;28;20676;-65
2022/01/13 04:34:27;;;;;;;71.40;29.33;;;1.10;99.90;;;;;;5053178;28;20281;-64
2022/01/13 04:36:58;;;;;;;70.77;28.87;;;1.00;99.90;;;;;;5053204;28;20290;-65
2022/01/13 04:39:25;;;;;;;58.00;29.30;;;1.00;99.90;;;;;;5053137;28;20159;-64
2022/01/13 04:41:53;;;;;;;61.23;28.10;;;1.00;99.90;;;;;;5053534;28;20171;-64
2022/01/13 04:44:22;;;;;;;63.83;29.03;;;1.10;99.90;;;;;;5053035;28;20224;-65
2022/01/13 04:46:51;;;;;;;64.37;28.30;;;1.10;99.90;;;;;;5053382;28;20178;-65
2022/01/13 04:49:20;;;;;;;60.90;28.93;;;1.10;99.90;;;;;;5053001;28;20185;-65
2022/01/13 04:51:48;;;;;;;69.63;29.97;;;1.10;99.90;;;;;;5053204;28;20174;-65
2022/01/13 04:54:16;;;;;;;65.60;29.80;;;1.20;99.90;;;;;;5053164;28;20263;-65
2022/01/13 04:56:52;;;;;;;61.60;29.53;;;1.20;99.90;;;;;;5053152;28;20557;-65
2022/01/13 04:59:19;;;;;;;59.50;28.07;;;1.20;99.90;;;;;;5053264;28;20164;-65
2022/01/13 05:01:44;;;;;;;68.00;30.30;;;1.20;99.90;;;;;;5052980;28;20190;-65
2022/01/13 05:04:10;;;;;;;65.77;28.77;;;1.20;99.90;;;;;;5052868;28;20191;-65
2022/01/13 05:06:37;;;;;;;69.47;30.97;;;1.20;99.90;;;;;;5051494;28;20183;-65
2022/01/13 05:09:03;;;;;;;66.43;30.30;;;1.20;99.90;;;;;;5052852;28;20712;-64
2022/01/13 05:11:29;;;;;;;68.90;30.37;;;1.20;99.90;;;;;;5052984;28;20183;-64
2022/01/13 05:13:55;;;;;;;70.17;30.73;;;1.20;99.90;;;;;;5052810;28;20195;-65
2022/01/13 05:16:30;;;;;;;69.70;30.07;;;1.20;99.90;;;;;;5052873;28;20198;-65
2022/01/13 05:21:45;;;;;;;71.27;31.20;;;1.30;99.90;;;;;;5052721;28;20523;-65
2022/01/13 05:24:11;;;;;;;69.27;31.50;;;1.20;99.90;;;;;;5052490;28;20217;-65
2022/01/13 05:26:38;;;;;;;66.93;29.63;;;1.30;99.90;;;;;;5056062;28;20191;-65
2022/01/13 05:29:04;;;;;;;79.30;32.77;;;1.30;99.90;;;;;;5056384;28;20178;-65
2022/01/13 05:31:30;;;;;;;67.97;28.97;;;1.30;99.90;;;;;;5056026;28;20181;-65
2022/01/13 05:33:56;;;;;;;76.60;32.37;;;1.30;99.90;;;;;;5056133;28;20198;-66
2022/01/13 05:36:21;;;;;;;70.37;29.93;;;1.20;99.90;;;;;;5056317;28;20213;-64
2022/01/13 05:38:48;;;;;;;67.20;30.73;;;1.20;99.90;;;;;;5056018;28;20252;-65
2022/01/13 05:41:14;;;;;;;70.60;30.40;;;1.20;99.90;;;;;;5056351;28;20253;-65
2022/01/13 05:43:40;;;;;;;73.07;30.53;;;1.20;99.90;;;;;;5055977;28;20696;-65
2022/01/13 05:46:05;;;;;;;66.37;29.37;;;1.20;99.90;;;;;;5055985;28;20257;-64
2022/01/13 05:48:31;;;;;;;69.47;30.50;;;1.30;99.90;;;;;;5055788;28;20204;-65
2022/01/13 05:50:58;;;;;;;77.73;32.60;;;1.30;99.90;;;;;;5054467;28;20179;-64
2022/01/13 05:53:24;;;;;;;74.40;29.60;;;1.30;99.90;;;;;;5055837;28;20170;-65
2022/01/13 05:55:50;;;;;;;72.77;32.63;;;1.30;99.90;;;;;;5055454;28;20212;-65
2022/01/13 05:58:16;;;;;;;68.63;30.90;;;1.30;99.90;;;;;;5054220;28;20178;-65
2022/01/13 06:00:42;;;;;;;65.33;30.43;;;1.30;99.90;;;;;;5055488;28;20308;-65
2022/01/13 06:03:09;;;;;;;75.70;31.97;;;1.30;99.90;;;;;;5055482;28;20339;-65
2022/01/13 06:05:35;;;;;;;67.77;31.73;;;1.30;99.90;;;;;;5055349;28;20203;-65
2022/01/13 06:08:01;;;;;;;69.03;33.17;;;1.30;99.90;;;;;;5055419;28;20175;-64
2022/01/13 06:10:27;;;;;;;82.40;32.83;;;1.30;99.90;;;;;;5055353;28;20646;-65
2022/01/13 06:12:53;;;;;;;71.13;29.67;;;1.30;99.90;;;;;;5055812;28;20185;-64
2022/01/13 06:15:22;;;;;;;74.73;31.13;;;1.30;99.90;;;;;;5055620;28;20227;-64
2022/01/13 06:17:49;;;;;;;72.83;32.50;;;1.30;99.90;;;;;;5055182;28;20163;-64
2022/01/13 06:20:17;;;;;;;79.90;33.40;;;1.30;99.90;;;;;;5056017;28;20167;-65
2022/01/13 06:22:44;;;;;;;72.30;30.97;;;1.30;99.90;;;;;;5055207;28;20241;-64
2022/01/13 06:25:11;;;;;;;75.13;31.70;;;1.30;99.90;;;;;;5055023;28;20197;-65
2022/01/13 06:27:38;;;;;;;73.43;32.47;;;1.30;99.90;;;;;;5055038;28;20269;-65
2022/01/13 06:30:06;;;;;;;68.43;30.43;;;1.30;99.90;;;;;;5055285;28;20174;-64
2022/01/13 06:32:32;;;;;;;62.40;30.03;;;1.30;99.90;;;;;;5055535;28;20194;-64
2022/01/13 06:34:57;;;;;;;63.80;28.77;;;1.30;99.90;;;;;;5055199;28;20191;-64
2022/01/13 06:37:23;;;;;;;64.20;28.07;;;1.30;99.90;;;;;;5054452;28;20617;-64
2022/01/13 06:39:49;;;;;;;66.47;30.00;;;1.30;99.90;;;;;;5053781;28;20635;-64
2022/01/13 06:42:16;;;;;;;74.63;30.60;;;1.30;99.90;;;;;;5054219;28;20170;-64
2022/01/13 06:44:42;;;;;;;70.90;30.37;;;1.30;99.90;;;;;;5055235;28;20186;-64
2022/01/13 06:47:07;;;;;;;78.53;32.57;;;1.30;99.90;;;;;;5055579;28;20185;-64
2022/01/13 06:49:34;;;;;;;69.83;31.63;;;1.30;99.90;;;;;;5054987;28;20193;-64
2022/01/13 06:52:00;;;;;;;77.00;31.23;;;1.30;99.90;;;;;;5055204;28;20162;-64
2022/01/13 06:54:26;;;;;;;64.73;28.80;;;1.30;99.90;;;;;;5053284;28;20203;-65
2022/01/13 06:56:52;;;;;;;66.90;28.20;;;1.30;99.90;;;;;;5053287;28;20672;-65
2022/01/13 06:59:19;;;;;;;58.73;26.77;;;1.30;99.90;;;;;;5054435;28;20265;-64
2022/01/13 07:01:46;;;;;;;64.67;27.07;;;1.30;99.90;;;;;;5054380;28;20174;-64
2022/01/13 07:04:13;;;;;;;69.97;30.33;;;1.30;99.90;;;;;;5054532;28;20194;-64
2022/01/13 07:06:40;;;;;;;57.47;29.03;;;1.30;99.90;;;;;;5054690;28;20175;-64
2022/01/13 07:09:09;;;;;;;64.20;29.40;;;1.30;99.90;;;;;;5054476;28;20166;-64
2022/01/13 07:11:35;;;;;;;65.87;28.00;;;1.30;99.90;;;;;;5054152;28;20170;-64
2022/01/13 07:14:01;;;;;;;58.93;31.00;;;1.30;99.90;;;;;;5054030;28;20217;-65
2022/01/13 07:16:27;;;;;;;50.23;25.93;;;1.30;99.90;;;;;;5053901;28;20209;-65
2022/01/13 07:18:53;;;;;;;64.50;30.30;;;1.30;99.90;;;;;;5054578;28;20182;-64
2022/01/13 07:21:21;;;;;;;55.03;29.13;;;1.30;99.90;;;;;;5054218;28;20210;-64
2022/01/13 07:23:47;;;;;;;62.10;28.93;;;1.30;99.90;;;;;;5054417;28;20198;-64
2022/01/13 07:26:13;;;;;;;61.53;28.47;;;1.20;99.90;;;;;;5054115;28;20710;-64
2022/01/13 07:28:39;;;;;;;61.93;28.57;;;1.20;99.90;;;;;;5054270;28;20171;-64
2022/01/13 07:31:05;;;;;;;57.13;27.33;;;1.20;99.90;;;;;;5054074;28;20612;-64
2022/01/13 07:33:31;;;;;;;53.57;26.87;;;1.20;99.90;;;;;;5053712;28;20235;-64
2022/01/13 07:35:57;;;;;;;60.33;28.80;;;1.20;99.90;;;;;;5053653;28;20201;-64
2022/01/13 07:38:22;;;;;;;56.13;26.10;;;1.20;99.90;;;;;;5053647;28;20546;-64
2022/01/13 07:40:48;;;;;;;54.40;26.77;;;1.20;99.90;;;;;;5052383;28;20650;-64
2022/01/13 07:43:21;;;;;;;61.77;28.67;;;1.10;99.90;;;;;;5053665;28;20178;-65
2022/01/13 07:45:48;;;;;;;55.93;28.47;;;1.10;99.90;;;;;;5053840;28;20190;-64
2022/01/13 07:48:14;;;;;;;55.30;26.93;;;1.10;99.90;;;;;;5053834;28;20174;-64
2022/01/13 07:50:40;;;;;;;56.77;26.57;;;1.10;99.90;;;;;;5052367;28;20185;-64
2022/01/13 07:53:06;;;;;;;57.93;27.13;;;1.10;99.90;;;;;;5052163;28;20190;-64
2022/01/13 07:55:31;;;;;;;58.97;28.17;;;1.00;99.90;;;;;;5055824;28;20633;-65
2022/01/13 07:57:57;;;;;;;63.00;29.67;;;1.00;99.90;;;;;;5053928;28;20217;-64
2022/01/13 08:00:23;;;;;;;63.87;29.23;;;1.00;99.90;;;;;;5053967;28;20257;-65
2022/01/13 08:02:48;;;;;;;65.73;29.43;;;1.00;99.90;;;;;;5053536;28;20204;-64
2022/01/13 08:05:14;;;;;;;64.50;29.93;;;1.10;99.90;;;;;;5053180;28;20198;-64
2022/01/13 08:07:40;;;;;;;63.87;29.03;;;1.10;99.90;;;;;;5053285;28;20687;-65
2022/01/13 08:10:06;;;;;;;59.23;27.80;;;1.10;99.90;;;;;;5053334;28;20178;-68
2022/01/13 08:12:32;;;;;;;61.87;28.43;;;1.10;99.90;;;;;;5052018;28;20178;-65
2022/01/13 08:14:58;;;;;;;61.77;28.67;;;1.20;99.90;;;;;;5053090;28;20194;-65
2022/01/13 08:20:08;;;;;;;56.97;28.07;;;1.20;99.90;;;;;;5053138;28;20535;-65
2022/01/13 08:22:35;;;;;;;60.23;26.90;;;1.20;99.90;;;;;;5053644;28;20175;-64
2022/01/13 08:25:01;;;;;;;63.03;26.73;;;1.20;99.90;;;;;;5053264;28;20186;-64
2022/01/13 08:27:26;;;;;;;53.67;26.10;;;1.20;99.90;;;;;;5053072;28;20255;-65
2022/01/13 08:29:52;;;;;;;53.67;25.93;;;1.20;99.90;;;;;;5053122;28;20265;-65
2022/01/13 08:32:18;;;;;;;55.50;26.63;;;1.20;99.90;;;;;;5053113;28;20651;-64
2022/01/13 08:34:45;;;;;;;62.23;28.23;;;1.20;99.90;;;;;;5052916;28;20194;-64
2022/01/13 08:37:10;;;;;;;55.13;25.27;;;1.20;99.90;;;;;;5051764;28;20666;-64
2022/01/13 08:39:43;;;;;;;58.33;24.03;;;1.20;99.90;;;;;;5053006;28;20182;-65
2022/01/13 08:42:09;;;;;;;55.53;25.73;;;1.20;99.90;;;;;;5053240;28;20163;-65
2022/01/13 08:44:35;;;;;;;51.07;24.73;;;1.30;99.90;;;;;;5053007;28;20289;-65
2022/01/13 08:47:00;;;;;;;52.17;24.63;;;1.30;99.90;;;;;;5053140;28;20179;-65
2022/01/13 08:49:26;;;;;;;45.57;24.27;;;1.30;99.90;;;;;;5052883;28;20190;-65
2022/01/13 08:51:54;;;;;;;56.00;25.10;;;1.40;99.90;;;;;;5053239;28;20198;-65
2022/01/13 08:54:21;;;;;;;52.50;24.93;;;1.40;99.90;;;;;;5052994;28;20570;-65
2022/01/13 08:56:48;;;;;;;59.03;25.03;;;1.50;99.90;;;;;;5053342;28;20194;-64
2022/01/13 08:59:13;;;;;;;47.50;23.97;;;1.50;99.90;;;;;;5054475;28;20167;-65
2022/01/13 09:01:39;;;;;;;43.17;23.20;;;1.60;99.90;;;;;;5055322;28;20179;-65
2022/01/13 09:04:06;;;;;;;46.37;23.40;;;1.60;99.90;;;;;;5055274;28;20198;-65
2022/01/13 09:06:32;;;;;;;44.57;23.07;;;1.70;99.90;;;;;;5056548;28;20308;-65
2022/01/13 09:08:58;;;;;;;46.17;23.90;;;1.70;99.90;;;;;;5055310;28;20218;-65
2022/01/13 09:11:24;;;;;;;53.83;24.53;;;1.80;99.90;;;;;;5056523;28;20155;-65
2022/01/13 09:13:56;;;;;;;45.70;22.90;;;1.90;99.90;;;;;;5056304;28;20195;-64
2022/01/13 09:16:24;;;;;;;52.53;25.27;;;1.90;99.90;;;;;;5055036;28;20205;-65
2022/01/13 09:21:29;;;;;;;53.20;25.07;;;2.00;99.90;;;;;;5056305;28;20166;-64
2022/01/13 09:23:55;;;;;;;44.20;24.30;;;2.10;99.90;;;;;;5056423;28;20248;-64
2022/01/13 09:26:21;;;;;;;53.23;24.67;;;2.20;99.90;;;;;;5054866;28;20198;-65
2022/01/13 09:28:47;;;;;;;47.57;24.80;;;2.30;99.90;;;;;;5054906;28;20300;-67
2022/01/13 09:31:13;;;;;;;42.67;22.40;;;2.40;99.90;;;;;;5054841;28;20282;-66
2022/01/13 09:33:39;;;;;;;49.37;24.10;;;2.40;99.90;;;;;;5056006;28;20655;-66
2022/01/13 09:36:08;;;;;;;46.13;23.53;;;2.50;99.90;;;;;;5056011;28;20226;-66
2022/01/13 09:38:35;;;;;;;42.70;22.57;;;2.60;99.90;;;;;;5055992;28;20169;-66
2022/01/13 09:41:03;;;;;;;45.37;22.27;;;2.60;99.90;;;;;;5056115;28;20179;-67
2022/01/13 09:43:29;;;;;;;49.77;25.03;;;2.70;99.90;;;;;;5057063;28;20190;-67
2022/01/13 09:45:59;;;;;;;44.73;22.37;;;2.80;99.90;;;;;;5055983;28;20163;-67
2022/01/13 09:48:27;;;;;;;39.50;21.07;;;2.80;99.90;;;;;;5056117;28;20166;-67
2022/01/13 09:50:52;;;;;;;46.00;22.50;;;2.90;99.90;;;;;;5056125;28;20261;-66
2022/01/13 09:53:18;;;;;;;39.37;21.77;;;3.00;99.90;;;;;;5055825;28;20716;-67
2022/01/13 09:55:46;;;;;;;43.37;21.93;;;3.10;99.90;;;;;;5055526;28;20293;-66
2022/01/13 09:58:12;;;;;;;42.07;20.93;;;3.20;99.90;;;;;;5055920;28;20237;-66
2022/01/13 10:00:40;;;;;;;41.00;21.87;;;3.30;99.90;;;;;;5054317;28;20259;-67
2022/01/13 10:03:11;;;;;;;43.70;21.67;;;3.40;99.90;;;;;;5054146;28;20179;-67
2022/01/13 10:05:50;;;;;;;37.37;21.63;;;3.50;99.90;;;;;;5055414;28;20686;-67
2022/01/13 10:08:15;;;;;;;44.77;22.70;;;3.60;99.90;;;;;;5055669;28;20212;-66
2022/01/13 10:10:41;;;;;;;51.07;21.63;;;3.60;99.90;;;;;;5055633;28;20182;-66
2022/01/13 10:13:14;;;;;;;41.43;23.10;;;3.70;99.90;;;;;;5054053;28;20189;-67
2022/01/13 10:18:44;;;;;;;42.27;20.20;;;3.90;99.90;;;;;;5055828;28;20170;-68
2022/01/13 10:21:15;;;;;;;40.57;21.47;;;4.00;99.90;;;;;;5053993;28;20225;-67
2022/01/13 10:24:03;;;;;;;40.83;20.70;;;4.10;99.90;;;;;;5053907;28;20656;-67
2022/01/13 10:26:30;;;;;;;38.00;21.50;;;4.20;99.90;;;;;;5053631;28;20563;-67
2022/01/13 10:28:56;;;;;;;36.60;19.77;;;4.30;99.90;;;;;;5055026;28;20205;-66
2022/01/13 10:31:49;;;;;;;35.33;20.43;;;4.40;99.90;;;;;;5055556;28;20627;-67
2022/01/13 10:34:20;;;;;;;40.60;20.93;;;4.60;99.90;;;;;;5055235;28;20664;-67
2022/01/13 10:37:11;;;;;;;40.20;20.63;;;4.70;99.90;;;;;;5055112;28;20201;-67
2022/01/13 10:39:49;;;;;;;39.57;19.57;;;4.80;99.90;;;;;;5054824;28;20669;-67
2022/01/13 10:45:17;;;;;;;35.20;20.13;;;5.00;99.90;;;;;;5063675;28;20266;-67
2022/01/13 10:47:49;;;;;;;37.00;20.67;;;5.10;99.90;;;;;;5054914;28;20215;-67
2022/01/13 10:50:15;;;;;;;34.80;18.77;;;5.30;99.90;;;;;;5054916;28;20238;-67
2022/01/13 10:52:41;;;;;;;36.83;19.53;;;5.30;99.90;;;;;;5053286;28;20178;-67
2022/01/13 10:55:19;;;;;;;32.67;19.17;;;5.40;99.90;;;;;;5054450;28;20202;-67
2022/01/13 10:57:46;;;;;;;42.10;19.60;;;5.50;99.90;;;;;;5054796;28;20169;-67
2022/01/13 11:00:17;;;;;;;35.67;19.43;;;5.60;99.90;;;;;;5054753;28;20171;-67
2022/01/13 11:03:09;;;;;;;32.80;18.23;;;5.80;99.90;;;;;;5054477;28;20249;-67
2022/01/13 11:05:56;;;;;;;29.00;17.27;;;5.90;99.90;;;;;;5054261;28;20270;-67
2022/01/13 11:08:37;;;;;;;35.33;19.40;;;6.10;99.90;;;;;;5054277;28;20619;-67
2022/01/13 11:11:04;;;;;;;33.60;18.90;;;6.10;99.90;;;;;;5054643;28;20155;-67
2022/01/13 11:13:35;;;;;;;41.07;19.97;;;6.00;99.90;;;;;;5054185;28;20651;-67
2022/01/13 11:16:01;;;;;;;33.50;18.83;;;6.20;99.90;;;;;;5052779;28;20204;-67
2022/01/13 11:18:31;;;;;;;35.87;19.23;;;6.40;99.90;;;;;;5054118;28;20257;-67
2022/01/13 11:20:59;;;;;;;36.63;19.50;;;6.50;99.90;;;;;;5054037;28;20162;-67
2022/01/13 11:23:26;;;;;;;30.50;18.53;;;6.50;99.90;;;;;;5052302;28;20181;-67
2022/01/13 11:25:54;;;;;;;36.60;18.10;;;6.50;99.90;;;;;;5052418;28;20194;-67
2022/01/13 11:28:21;;;;;;;34.70;19.07;;;6.50;99.90;;;;;;5053962;28;20163;-67
2022/01/13 11:30:50;;;;;;;38.50;18.90;;;6.50;99.90;;;;;;5053833;28;20716;-67
2022/01/13 11:33:19;;;;;;;34.10;17.90;;;6.60;99.90;;;;;;5053828;28;20174;-67
2022/01/13 11:35:53;;;;;;;31.67;18.47;;;6.70;99.90;;;;;;5052403;28;20249;-67
2022/01/13 11:38:19;;;;;;;31.00;18.03;;;6.70;99.90;;;;;;5054033;28;20155;-67
2022/01/13 11:40:48;;;;;;;33.00;17.33;;;6.70;99.90;;;;;;5053941;28;20502;-67
2022/01/13 11:43:28;;;;;;;34.40;18.10;;;6.80;99.90;;;;;;5053658;28;20167;-67
2022/01/13 11:45:54;;;;;;;32.13;17.57;;;7.00;99.90;;;;;;5053594;28;20170;-67
2022/01/13 11:48:26;;;;;;;30.13;16.90;;;7.10;99.90;;;;;;5052281;28;20182;-67
2022/01/13 11:51:13;;;;;;;30.67;17.00;;;7.50;99.90;;;;;;5052256;28;20605;-67
2022/01/13 11:53:41;;;;;;;36.13;17.83;;;7.40;99.90;;;;;;5053666;28;20186;-66
2022/01/13 11:56:08;;;;;;;26.53;16.17;;;7.40;99.90;;;;;;5052112;28;20209;-67
2022/01/13 11:58:42;;;;;;;27.93;17.03;;;7.50;99.90;;;;;;5052156;28;20517;-67
2022/01/13 12:01:17;;;;;;;31.00;17.03;;;7.50;99.90;;;;;;5053341;28;20173;-67
2022/01/13 12:03:43;;;;;;;28.83;16.10;;;7.60;99.90;;;;;;5054677;28;20188;-67
2022/01/13 12:06:29;;;;;;;31.70;18.03;;;7.60;99.90;;;;;;5063119;28;20186;-67
2022/01/13 12:08:57;;;;;;;34.73;18.70;;;7.80;99.90;;;;;;5071393;28;20248;-68
2022/01/13 12:11:51;;;;;;;33.20;18.10;;;7.50;99.90;;;;;;5071138;28;20718;-67
2022/01/13 12:14:28;;;;;;;33.47;18.80;;;7.60;99.90;;;;;;5072403;28;20193;-67
2022/01/13 12:17:11;;;;;;;36.13;18.63;;;7.50;99.90;;;;;;5073309;28;20195;-67
2022/01/13 12:19:48;;;;;;;30.70;17.07;;;7.60;99.90;;;;;;5073950;28;20506;-64
2022/01/13 12:22:29;;;;;;;32.87;16.80;;;7.70;99.90;;;;;;5073577;28;20208;-64
2022/01/13 12:25:06;;;;;;;35.03;17.93;;;7.80;99.90;;;;;;5073211;28;20230;-64
2022/01/13 12:27:38;;;;;;;32.60;17.80;;;8.00;99.90;;;;;;5073376;28;20213;-70
2022/01/13 12:30:15;;;;;;;31.67;17.03;;;7.90;99.90;;;;;;5073226;28;20181;-65
2022/01/13 12:32:51;;;;;;;33.57;17.93;;;7.80;99.90;;;;;;5073216;28;20692;-64
2022/01/13 12:35:37;;;;;;;34.53;17.17;;;7.90;99.90;;;;;;5076676;28;20223;-64
2022/01/13 12:38:15;;;;;;;33.40;17.00;;;7.90;99.90;;;;;;5078383;28;20182;-67
2022/01/13 12:41:02;;;;;;;35.47;17.23;;;8.00;99.90;;;;;;5078086;28;20336;-67
2022/01/13 12:43:37;;;;;;;34.43;17.90;;;8.10;99.90;;;;;;5078920;28;20153;-67
2022/01/13 12:46:07;;;;;;;35.20;17.50;;;8.00;99.90;;;;;;5077735;28;20161;-67
2022/01/13 12:48:34;;;;;;;35.50;18.60;;;8.10;99.90;;;;;;5077314;28;20162;-67
2022/01/13 12:51:00;;;;;;;37.73;16.57;;;8.00;99.90;;;;;;5076925;28;20174;-67
2022/01/13 12:53:28;;;;;;;31.77;17.40;;;8.00;99.90;;;;;;5076911;28;20672;-67
2022/01/13 12:56:00;;;;;;;31.00;16.43;;;8.10;99.90;;;;;;5076912;28;20292;-67
2022/01/13 12:58:29;;;;;;;29.73;16.13;;;8.00;99.90;;;;;;5076828;28;20504;-67
2022/01/13 13:01:06;;;;;;;27.73;15.80;;;8.20;99.90;;;;;;5076789;28;20162;-67
2022/01/13 13:03:32;;;;;;;30.17;15.87;;;8.30;99.90;;;;;;5076909;28;20649;-66
2022/01/13 13:05:59;;;;;;;32.90;16.93;;;8.20;99.90;;;;;;5076820;28;20170;-67
2022/01/13 13:08:27;;;;;;;29.07;15.40;;;8.30;99.90;;;;;;5076856;28;20577;-67
2022/01/13 13:11:00;;;;;;;26.77;14.80;;;8.20;99.90;;;;;;5076563;28;20174;-67
2022/01/13 13:13:33;;;;;;;33.43;16.33;;;8.40;99.90;;;;;;5076589;28;20241;-68
2022/01/13 13:16:02;;;;;;;26.10;15.57;;;8.40;99.90;;;;;;5076489;28;20220;-67